Terminal Aerodrome Forecast
Issued by NWS

Home | Current Version | Previous Version | Text Only | Print | Product List | Glossary On
Versions: 1 2 3 4 5 6 7 8 9 10 11 12 13 14 15 16 17 18 19 20 21 22 23 24
470
FTUS43 KMPX 201926 AAA
TAFRNH
TAF AMD
KRNH 201926Z 2019/2118 13004KT 1SM -DZ BR VV002
     FM210800 11006KT 3SM -RA BR OVC005=

USA.gov is the U.S. government's official web portal to all federal, state and local government web resources and services.